Flag Island, Minnesota
Current Conditions -  °F | °C
As of 9:54 AM on Saturday 25 Oct 2014 (Local Time) from KFGN Reporting Station
Clear Clear  
Wind Chill: 36°   Ceiling: Unl
Heat Index: 45°   Visibility: 10mi
Dew Point: 34°   Wind: 21mph
Humidity: 66%   Direction: 290°WNW
Pressure: 29.9"   Gusts: 29mph
Location:  49.32°N, 94.9°W
Report Text: KFGN 251454Z AUTO 29018G25KT 10SM CLR 07/01 A2990 RMK AO2
Loading
Personal Weather Stations






























Interactive Weather Map
Tropical Storm Tracking
New forecast layout! Learn more

10-Day Weather Forecast

Advertisements
Track Severe Weather on mobile